Time,TemperatureF,DewpointF,PressureIn,WindDirection,WindDirectionDegrees,WindSpeedMPH,WindSpeedGustMPH,Humidity,HourlyPrecipIn,Conditions,Clouds,dailyrainin,SoftwareType,DateUTC
2013-06-07 00:02:00,54.5,24.5,30.19,NW,315,0.0,0.9,31,0.00,,,0.00,WUHU216HW,2013-06-07 07:02:00,
2013-06-07 00:07:00,54.5,24.5,30.19,NW,315,0.0,0.4,31,0.00,,,0.00,WUHU216HW,2013-06-07 07:07:00,
2013-06-07 00:12:00,54.4,24.3,30.19,South,180,0.9,2.0,31,0.00,,,0.00,WUHU216HW,2013-06-07 07:12:00,
2013-06-07 00:17:00,54.2,23.5,30.19,South,180,0.7,2.7,30,0.00,,,0.00,WUHU216HW,2013-06-07 07:17:00,
2013-06-07 00:22:00,53.8,23.9,30.19,SSE,158,1.1,2.7,31,0.00,,,0.00,WUHU216HW,2013-06-07 07:22:00,
2013-06-07 00:27:00,53.6,23.0,30.19,South,180,1.1,2.5,30,0.00,,,0.00,WUHU216HW,2013-06-07 07:27:00,
2013-06-07 00:32:00,53.5,22.9,30.19,South,180,3.1,4.0,30,0.00,,,0.00,WUHU216HW,2013-06-07 07:32:00,
2013-06-07 00:37:00,52.9,22.4,30.19,WNW,293,0.0,4.0,30,0.00,,,0.00,WUHU216HW,2013-06-07 07:37:00,
2013-06-07 00:42:00,52.6,22.8,30.19,SSE,158,0.9,3.1,31,0.00,,,0.00,WUHU216HW,2013-06-07 07:42:00,
2013-06-07 00:47:00,52.2,22.4,30.19,SE,135,0.0,2.5,31,0.00,,,0.00,WUHU216HW,2013-06-07 07:47:00,
2013-06-07 00:52:00,52.0,23.0,30.19,SSW,203,1.1,1.8,32,0.00,,,0.00,WUHU216HW,2013-06-07 07:52:00,
2013-06-07 00:57:00,51.8,22.8,30.19,South,180,2.7,2.7,32,0.00,,,0.00,WUHU216HW,2013-06-07 07:57:00,
2013-06-07 01:02:00,51.5,23.9,30.20,East,90,2.7,4.5,34,0.00,,,0.00,WUHU216HW,2013-06-07 08:02:00,
2013-06-07 01:07:00,51.5,23.1,30.19,SSE,158,0.4,4.5,33,0.00,,,0.00,WUHU216HW,2013-06-07 08:07:00,
2013-06-07 01:12:00,51.3,23.7,30.20,West,270,1.6,3.1,34,0.00,,,0.00,WUHU216HW,2013-06-07 08:12:00,
2013-06-07 01:17:00,51.1,23.5,30.19,West,270,1.1,3.1,34,0.00,,,0.00,WUHU216HW,2013-06-07 08:17:00,
2013-06-07 01:22:00,51.1,23.5,30.19,South,180,1.3,2.0,34,0.00,,,0.00,WUHU216HW,2013-06-07 08:22:00,
2013-06-07 01:27:00,50.8,23.2,30.19,South,180,0.4,2.7,34,0.00,,,0.00,WUHU216HW,2013-06-07 08:27:00,
2013-06-07 01:32:00,50.8,23.2,30.19,SE,135,0.0,2.7,34,0.00,,,0.00,WUHU216HW,2013-06-07 08:32:00,
2013-06-07 01:37:00,50.4,22.9,30.19,SE,135,1.3,1.3,34,0.00,,,0.00,WUHU216HW,2013-06-07 08:37:00,
2013-06-07 01:42:00,50.2,22.7,30.19,SSE,158,1.1,1.8,34,0.00,,,0.00,WUHU216HW,2013-06-07 08:42:00,
2013-06-07 01:47:00,50.2,22.7,30.19,SSW,203,0.4,1.8,34,0.00,,,0.00,WUHU216HW,2013-06-07 08:47:00,
2013-06-07 01:52:00,50.0,22.5,30.19,SSE,158,0.4,1.6,34,0.00,,,0.00,WUHU216HW,2013-06-07 08:52:00,
2013-06-07 01:57:00,49.7,23.0,30.19,South,180,0.0,3.4,35,0.00,,,0.00,WUHU216HW,2013-06-07 08:57:00,
2013-06-07 02:02:00,49.3,23.3,30.19,SSE,158,0.9,3.4,36,0.00,,,0.00,WUHU216HW,2013-06-07 09:02:00,
2013-06-07 02:07:00,49.3,23.3,30.19,SSW,203,0.4,2.7,36,0.00,,,0.00,WUHU216HW,2013-06-07 09:07:00,
2013-06-07 02:12:00,49.0,23.0,30.19,WSW,248,0.2,2.7,36,0.00,,,0.00,WUHU216HW,2013-06-07 09:12:00,
2013-06-07 02:17:00,48.6,22.7,30.19,NNE,23,1.1,2.5,36,0.00,,,0.00,WUHU216HW,2013-06-07 09:17:00,
2013-06-07 02:22:00,48.2,23.1,30.19,NW,315,0.0,2.2,37,0.00,,,0.00,WUHU216HW,2013-06-07 09:22:00,
2013-06-07 02:27:00,48.1,22.9,30.19,SE,135,0.0,1.6,37,0.00,,,0.00,WUHU216HW,2013-06-07 09:27:00,
2013-06-07 02:32:00,47.9,22.7,30.19,SSE,158,0.0,1.1,37,0.00,,,0.00,WUHU216HW,2013-06-07 09:32:00,
2013-06-07 02:37:00,47.9,23.4,30.18,South,180,0.9,3.1,38,0.00,,,0.00,WUHU216HW,2013-06-07 09:37:00,
2013-06-07 02:42:00,47.5,23.0,30.18,SSE,158,0.2,3.1,38,0.00,,,0.00,WUHU216HW,2013-06-07 09:42:00,
2013-06-07 02:47:00,47.3,22.9,30.19,SW,225,1.8,1.8,38,0.00,,,0.00,WUHU216HW,2013-06-07 09:47:00,
2013-06-07 02:52:00,47.2,22.7,30.19,ESE,113,0.9,1.8,38,0.00,,,0.00,WUHU216HW,2013-06-07 09:52:00,
2013-06-07 02:57:00,46.6,21.6,30.19,South,180,1.1,2.5,37,0.00,,,0.00,WUHU216HW,2013-06-07 09:57:00,
2013-06-07 03:02:00,46.4,21.4,30.19,South,180,0.9,2.5,37,0.00,,,0.00,WUHU216HW,2013-06-07 10:02:00,
2013-06-07 03:07:00,46.3,21.2,30.19,SSE,158,0.9,2.2,37,0.00,,,0.00,WUHU216HW,2013-06-07 10:07:00,
2013-06-07 03:12:00,46.1,21.8,30.19,South,180,1.8,2.9,38,0.00,,,0.00,WUHU216HW,2013-06-07 10:12:00,
2013-06-07 03:17:00,45.7,21.4,30.19,SSE,158,0.0,2.9,38,0.00,,,0.00,WUHU216HW,2013-06-07 10:17:00,
2013-06-07 03:22:00,45.7,21.4,30.19,NNW,338,0.9,1.8,38,0.00,,,0.00,WUHU216HW,2013-06-07 10:22:00,
2013-06-07 03:27:00,45.7,21.4,30.19,WSW,248,0.0,0.9,38,0.00,,,0.00,WUHU216HW,2013-06-07 10:27:00,
2013-06-07 03:32:00,45.5,22.0,30.19,SW,225,0.0,0.0,39,0.00,,,0.00,WUHU216HW,2013-06-07 10:32:00,
2013-06-07 03:37:00,45.4,22.4,30.19,NE,45,0.9,1.8,40,0.00,,,0.00,WUHU216HW,2013-06-07 10:37:00,
2013-06-07 03:42:00,45.2,21.6,30.19,ESE,113,0.0,1.8,39,0.00,,,0.00,WUHU216HW,2013-06-07 10:42:00,
2013-06-07 03:47:00,45.0,22.2,30.19,SSE,158,0.7,1.3,40,0.00,,,0.00,WUHU216HW,2013-06-07 10:47:00,
2013-06-07 03:52:00,45.2,23.3,30.19,NE,45,2.2,2.2,42,0.00,,,0.00,WUHU216HW,2013-06-07 10:52:00,
2013-06-07 03:57:00,44.6,21.8,30.19,SSE,158,1.1,2.9,40,0.00,,,0.00,WUHU216HW,2013-06-07 10:57:00,
2013-06-07 04:02:00,44.3,22.0,30.19,SSE,158,2.5,3.8,41,0.00,,,0.00,WUHU216HW,2013-06-07 11:02:00,
2013-06-07 04:07:00,44.3,22.0,30.19,South,180,1.3,3.8,41,0.00,,,0.00,WUHU216HW,2013-06-07 11:07:00,
2013-06-07 04:12:00,44.3,21.4,30.19,South,180,1.1,2.7,40,0.00,,,0.00,WUHU216HW,2013-06-07 11:12:00,
2013-06-07 04:17:00,44.1,21.3,30.19,WSW,248,0.0,2.7,40,0.00,,,0.00,WUHU216HW,2013-06-07 11:17:00,
2013-06-07 04:22:00,44.1,21.9,30.19,SSE,158,0.0,0.4,41,0.00,,,0.00,WUHU216HW,2013-06-07 11:22:00,
2013-06-07 04:27:00,43.9,21.7,30.19,South,180,0.4,1.1,41,0.00,,,0.00,WUHU216HW,2013-06-07 11:27:00,
2013-06-07 04:32:00,43.9,21.7,30.19,South,180,0.2,1.1,41,0.00,,,0.00,WUHU216HW,2013-06-07 11:32:00,
2013-06-07 04:37:00,43.9,21.7,30.19,South,180,1.1,1.6,41,0.00,,,0.00,WUHU216HW,2013-06-07 11:37:00,
2013-06-07 04:42:00,43.7,21.5,30.19,SE,135,0.4,1.6,41,0.00,,,0.00,WUHU216HW,2013-06-07 11:42:00,
2013-06-07 04:47:00,43.6,21.3,30.19,South,180,1.6,1.8,41,0.00,,,0.00,WUHU216HW,2013-06-07 11:47:00,
2013-06-07 04:52:00,43.6,21.3,30.19,SSE,158,2.7,2.7,41,0.00,,,0.00,WUHU216HW,2013-06-07 11:52:00,
2013-06-07 04:57:00,43.6,21.3,30.19,SSE,158,2.2,2.7,41,0.00,,,0.00,WUHU216HW,2013-06-07 11:57:00,
2013-06-07 05:02:00,43.4,21.2,30.19,SE,135,1.6,3.1,41,0.00,,,0.00,WUHU216HW,2013-06-07 12:02:00,
2013-06-07 05:07:00,43.2,21.6,30.19,SSE,158,1.8,3.1,42,0.00,,,0.00,WUHU216HW,2013-06-07 12:07:00,
2013-06-07 05:12:00,42.8,21.2,30.19,SSE,158,0.0,1.8,42,0.00,,,0.00,WUHU216HW,2013-06-07 12:12:00,
2013-06-07 05:17:00,42.5,21.4,30.20,SSE,158,0.7,1.8,43,0.00,,,0.00,WUHU216HW,2013-06-07 12:17:00,
2013-06-07 05:22:00,42.3,21.2,30.20,SSW,203,0.0,0.9,43,0.00,,,0.00,WUHU216HW,2013-06-07 12:22:00,
2013-06-07 05:27:00,42.3,21.2,30.20,WSW,248,0.4,0.9,43,0.00,,,0.00,WUHU216HW,2013-06-07 12:27:00,
2013-06-07 05:32:00,42.3,21.8,30.20,South,180,0.0,0.9,44,0.00,,,0.00,WUHU216HW,2013-06-07 12:32:00,
2013-06-07 05:37:00,42.5,22.0,30.20,SSE,158,0.4,1.1,44,0.00,,,0.00,WUHU216HW,2013-06-07 12:37:00,
2013-06-07 05:42:00,42.5,22.0,30.20,South,180,0.4,1.6,44,0.00,,,0.00,WUHU216HW,2013-06-07 12:42:00,
2013-06-07 05:47:00,42.5,22.0,30.20,South,180,1.3,1.6,44,0.00,,,0.00,WUHU216HW,2013-06-07 12:47:00,
2013-06-07 05:52:00,42.7,22.1,30.20,SSW,203,0.4,1.6,44,0.00,,,0.00,WUHU216HW,2013-06-07 12:52:00,
2013-06-07 05:57:00,42.7,22.7,30.20,ESE,113,0.0,1.6,45,0.00,,,0.00,WUHU216HW,2013-06-07 12:57:00,
2013-06-07 06:02:00,42.8,22.9,30.20,SSE,158,2.0,2.0,45,0.00,,,0.00,WUHU216HW,2013-06-07 13:02:00,
2013-06-07 06:07:00,43.2,23.8,30.20,ENE,68,0.2,2.0,46,0.00,,,0.00,WUHU216HW,2013-06-07 13:07:00,
2013-06-07 06:12:00,43.7,24.8,30.20,NNW,338,2.5,4.3,47,0.00,,,0.00,WUHU216HW,2013-06-07 13:12:00,
2013-06-07 06:17:00,46.3,27.0,30.20,NNW,338,5.6,6.0,47,0.00,,,0.00,WUHU216HW,2013-06-07 13:17:00,
2013-06-07 06:22:00,50.4,28.6,30.20,NNE,23,4.7,7.2,43,0.00,,,0.00,WUHU216HW,2013-06-07 13:22:00,
2013-06-07 06:27:00,54.7,30.2,30.20,North,0,3.4,7.2,39,0.00,,,0.00,WUHU216HW,2013-06-07 13:27:00,
2013-06-07 06:32:00,57.2,30.3,30.20,NNE,23,4.7,6.3,36,0.00,,,0.00,WUHU216HW,2013-06-07 13:32:00,
2013-06-07 06:37:00,59.2,30.7,30.20,North,0,4.0,6.3,34,0.00,,,0.00,WUHU216HW,2013-06-07 13:37:00,
2013-06-07 06:42:00,60.8,29.9,30.20,NNW,338,5.4,6.3,31,0.00,,,0.00,WUHU216HW,2013-06-07 13:42:00,
2013-06-07 06:47:00,62.1,30.3,30.20,North,0,6.3,6.3,30,0.00,,,0.00,WUHU216HW,2013-06-07 13:47:00,
2013-06-07 06:52:00,63.7,28.8,30.21,East,90,9.4,9.4,27,0.00,,,0.00,WUHU216HW,2013-06-07 13:52:00,
2013-06-07 06:57:00,65.7,30.5,30.21,NNE,23,4.5,9.4,27,0.00,,,0.00,WUHU216HW,2013-06-07 13:57:00,
2013-06-07 07:02:00,66.8,30.4,30.21,NE,45,12.1,12.1,26,0.00,,,0.00,WUHU216HW,2013-06-07 14:02:00,
2013-06-07 07:07:00,67.9,30.3,30.21,ENE,68,6.9,12.1,25,0.00,,,0.00,WUHU216HW,2013-06-07 14:07:00,
2013-06-07 07:12:00,68.8,31.2,30.21,ESE,113,4.9,8.7,25,0.00,,,0.00,WUHU216HW,2013-06-07 14:12:00,
2013-06-07 07:17:00,69.5,30.7,30.21,NE,45,4.0,8.9,24,0.00,,,0.00,WUHU216HW,2013-06-07 14:17:00,
2013-06-07 07:22:00,70.0,31.1,30.21,NW,315,2.9,8.9,24,0.00,,,0.00,WUHU216HW,2013-06-07 14:22:00,
2013-06-07 07:27:00,71.3,31.2,30.21,NE,45,6.9,10.7,23,0.00,,,0.00,WUHU216HW,2013-06-07 14:27:00,
2013-06-07 07:32:00,72.5,31.3,30.21,ENE,68,5.4,10.7,22,0.00,,,0.00,WUHU216HW,2013-06-07 14:32:00,
2013-06-07 07:37:00,73.4,31.1,30.21,NNE,23,4.9,9.8,21,0.00,,,0.00,WUHU216HW,2013-06-07 14:37:00,
2013-06-07 07:42:00,74.2,31.7,30.21,ENE,68,7.6,9.4,21,0.00,,,0.00,WUHU216HW,2013-06-07 14:42:00,
2013-06-07 07:47:00,75.4,31.7,30.21,North,0,5.8,7.6,20,0.00,,,0.00,WUHU216HW,2013-06-07 14:47:00,
2013-06-07 07:52:00,78.1,32.1,30.21,ESE,113,4.0,7.6,19,0.00,,,0.00,WUHU216HW,2013-06-07 14:52:00,
2013-06-07 07:57:00,81.5,31.7,30.21,ENE,68,5.6,7.2,17,0.00,,,0.00,WUHU216HW,2013-06-07 14:57:00,
2013-06-07 08:02:00,84.2,33.8,30.21,NE,45,3.8,6.5,17,0.00,,,0.00,WUHU216HW,2013-06-07 15:02:00,
2013-06-07 08:07:00,86.8,32.4,30.21,NE,45,2.2,8.5,15,0.00,,,0.00,WUHU216HW,2013-06-07 15:07:00,
2013-06-07 08:12:00,89.3,30.9,30.21,North,0,3.4,8.5,13,0.00,,,0.00,WUHU216HW,2013-06-07 15:12:00,
2013-06-07 08:17:00,90.2,31.6,30.21,North,0,7.6,7.6,13,0.00,,,0.00,WUHU216HW,2013-06-07 15:17:00,
2013-06-07 08:22:00,90.4,30.0,30.21,NNE,23,4.9,8.1,12,0.00,,,0.00,WUHU216HW,2013-06-07 15:22:00,
2013-06-07 08:27:00,89.8,29.5,30.21,North,0,2.5,8.1,12,0.00,,,0.00,WUHU216HW,2013-06-07 15:27:00,
2013-06-07 08:32:00,90.0,29.7,30.21,NE,45,5.1,6.9,12,0.00,,,0.00,WUHU216HW,2013-06-07 15:32:00,
2013-06-07 08:37:00,89.5,29.3,30.21,East,90,8.1,10.5,12,0.00,,,0.00,WUHU216HW,2013-06-07 15:37:00,
2013-06-07 08:42:00,88.7,28.8,30.21,North,0,4.0,10.5,12,0.00,,,0.00,WUHU216HW,2013-06-07 15:42:00,
2013-06-07 08:47:00,88.0,28.3,30.21,NE,45,3.4,9.2,12,0.00,,,0.00,WUHU216HW,2013-06-07 15:47:00,
2013-06-07 08:52:00,87.1,29.3,30.21,East,90,5.4,9.2,13,0.00,,,0.00,WUHU216HW,2013-06-07 15:52:00,
2013-06-07 08:57:00,86.9,27.4,30.21,ENE,68,9.2,9.8,12,0.00,,,0.00,WUHU216HW,2013-06-07 15:57:00,
2013-06-07 09:02:00,86.0,28.4,30.21,ENE,68,4.9,9.8,13,0.00,,,0.00,WUHU216HW,2013-06-07 16:02:00,
2013-06-07 09:07:00,85.9,28.2,30.21,ENE,68,6.9,9.2,13,0.00,,,0.00,WUHU216HW,2013-06-07 16:07:00,
2013-06-07 09:12:00,86.8,29.0,30.21,ESE,113,5.4,7.6,13,0.00,,,0.00,WUHU216HW,2013-06-07 16:12:00,
2013-06-07 09:17:00,87.1,27.6,30.21,ENE,68,2.0,7.6,12,0.00,,,0.00,WUHU216HW,2013-06-07 16:17:00,
2013-06-07 09:22:00,86.8,27.3,30.21,NNE,23,2.5,6.3,12,0.00,,,0.00,WUHU216HW,2013-06-07 16:22:00,
2013-06-07 09:27:00,86.9,27.4,30.21,SE,135,4.0,6.3,12,0.00,,,0.00,WUHU216HW,2013-06-07 16:27:00,
2013-06-07 09:32:00,87.5,26.1,30.21,NE,45,5.1,9.4,11,0.00,,,0.00,WUHU216HW,2013-06-07 16:32:00,
2013-06-07 09:37:00,87.8,26.4,30.21,ENE,68,1.8,9.4,11,0.00,,,0.00,WUHU216HW,2013-06-07 16:37:00,
2013-06-07 09:42:00,88.7,28.8,30.21,East,90,4.0,6.7,12,0.00,,,0.00,WUHU216HW,2013-06-07 16:42:00,
2013-06-07 09:47:00,89.3,29.2,30.21,North,0,7.6,7.6,12,0.00,,,0.00,WUHU216HW,2013-06-07 16:47:00,
2013-06-07 09:52:00,89.6,25.9,30.21,North,0,4.5,8.3,10,0.00,,,0.00,WUHU216HW,2013-06-07 16:52:00,
2013-06-07 09:57:00,90.0,26.2,30.21,NNW,338,3.8,10.5,10,0.00,,,0.00,WUHU216HW,2013-06-07 16:57:00,
2013-06-07 10:02:00,90.2,26.4,30.21,North,0,4.7,10.5,10,0.00,,,0.00,WUHU216HW,2013-06-07 17:02:00,
2013-06-07 10:07:00,90.0,26.2,30.21,NNW,338,4.3,10.3,10,0.00,,,0.00,WUHU216HW,2013-06-07 17:07:00,
2013-06-07 10:12:00,89.3,25.7,30.21,North,0,3.4,10.3,10,0.00,,,0.00,WUHU216HW,2013-06-07 17:12:00,
2013-06-07 10:17:00,89.6,27.6,30.21,ENE,68,9.4,9.4,11,0.00,,,0.00,WUHU216HW,2013-06-07 17:17:00,
2013-06-07 10:22:00,89.6,25.9,30.21,North,0,3.8,10.7,10,0.00,,,0.00,WUHU216HW,2013-06-07 17:22:00,
2013-06-07 10:27:00,89.6,25.9,30.21,NNW,338,6.5,10.7,10,0.00,,,0.00,WUHU216HW,2013-06-07 17:27:00,
2013-06-07 10:32:00,89.8,26.1,30.21,North,0,2.0,10.5,10,0.00,,,0.00,WUHU216HW,2013-06-07 17:32:00,
2013-06-07 10:37:00,89.6,25.9,30.21,North,0,4.3,10.5,10,0.00,,,0.00,WUHU216HW,2013-06-07 17:37:00,
2013-06-07 10:42:00,89.6,25.9,30.21,NNW,338,8.9,11.4,10,0.00,,,0.00,WUHU216HW,2013-06-07 17:42:00,
2013-06-07 10:47:00,90.4,26.5,30.21,NNE,23,3.8,11.4,10,0.00,,,0.00,WUHU216HW,2013-06-07 17:47:00,
2013-06-07 10:52:00,91.3,27.2,30.21,NE,45,4.7,10.5,10,0.00,,,0.00,WUHU216HW,2013-06-07 17:52:00,
2013-06-07 10:57:00,91.4,27.4,30.21,NNW,338,3.8,8.5,10,0.00,,,0.00,WUHU216HW,2013-06-07 17:57:00,
2013-06-07 11:02:00,92.0,27.7,30.20,NNE,23,4.7,8.9,8,0.00,,,0.00,WUHU216HW,2013-06-07 18:02:00,
2013-06-07 11:07:00,91.1,27.1,30.21,NNE,23,8.3,14.3,8,0.00,,,0.00,WUHU216HW,2013-06-07 18:07:00,
2013-06-07 11:13:00,91.1,27.1,30.20,North,0,3.8,14.3,8,0.00,,,0.00,WUHU216HW,2013-06-07 18:13:00,
2013-06-07 11:18:00,90.7,26.8,30.20,NNE,23,6.3,9.2,9,0.00,,,0.00,WUHU216HW,2013-06-07 18:18:00,
2013-06-07 11:23:00,90.9,26.9,30.20,NW,315,6.3,9.8,8,0.00,,,0.00,WUHU216HW,2013-06-07 18:23:00,
2013-06-07 11:28:00,90.4,26.5,30.20,ENE,68,8.5,9.8,8,0.00,,,0.00,WUHU216HW,2013-06-07 18:28:00,
2013-06-07 11:33:00,90.4,26.5,30.20,NW,315,7.8,9.8,8,0.00,,,0.00,WUHU216HW,2013-06-07 18:33:00,
2013-06-07 11:38:00,90.7,26.8,30.20,NNE,23,2.5,9.4,8,0.00,,,0.00,WUHU216HW,2013-06-07 18:38:00,
2013-06-07 11:43:00,90.4,26.5,30.20,ESE,113,5.4,6.9,8,0.00,,,0.00,WUHU216HW,2013-06-07 18:43:00,
2013-06-07 11:49:00,90.4,26.5,30.20,NNW,338,8.5,8.5,10,0.00,,,0.00,WUHU216HW,2013-06-07 18:49:00,
2013-06-07 11:54:00,91.1,27.1,30.20,NNE,23,6.0,8.5,8,0.00,,,0.00,WUHU216HW,2013-06-07 18:54:00,
2013-06-07 11:59:00,90.7,26.8,30.20,NNW,338,4.0,12.5,8,0.00,,,0.00,WUHU216HW,2013-06-07 18:59:00,
2013-06-07 12:04:00,90.4,26.5,30.19,NNE,23,1.3,12.5,8,0.00,,,0.00,WUHU216HW,2013-06-07 19:04:00,
2013-06-07 12:09:00,90.2,26.4,30.19,NE,45,6.5,8.5,8,0.00,,,0.00,WUHU216HW,2013-06-07 19:09:00,
2013-06-07 12:14:00,90.5,26.6,30.19,NNE,23,6.3,11.2,8,0.00,,,0.00,WUHU216HW,2013-06-07 19:14:00,
2013-06-07 12:19:00,90.9,26.9,30.19,North,0,3.8,11.2,8,0.00,,,0.00,WUHU216HW,2013-06-07 19:19:00,
2013-06-07 12:24:00,91.1,27.1,30.19,NNW,338,2.9,10.3,8,0.00,,,0.00,WUHU216HW,2013-06-07 19:24:00,
2013-06-07 12:30:00,91.4,27.4,30.19,NNW,338,9.2,9.2,8,0.00,,,0.00,WUHU216HW,2013-06-07 19:30:00,
2013-06-07 12:35:00,92.2,27.9,30.19,NW,315,4.3,11.4,8,0.00,,,0.00,WUHU216HW,2013-06-07 19:35:00,
2013-06-07 12:40:00,92.7,28.3,30.19,WNW,293,1.3,11.4,8,0.00,,,0.00,WUHU216HW,2013-06-07 19:40:00,
2013-06-07 12:46:00,93.1,28.5,30.19,NW,315,6.3,9.2,8,0.00,,,0.00,WUHU216HW,2013-06-07 19:46:00,
2013-06-07 12:51:00,92.9,28.4,30.19,NE,45,4.7,9.4,7,0.00,,,0.00,WUHU216HW,2013-06-07 19:51:00,
2013-06-07 12:57:00,91.6,27.5,30.19,NNW,338,1.8,9.4,7,0.00,,,0.00,WUHU216HW,2013-06-07 19:57:00,
2013-06-07 13:02:00,91.6,27.5,30.19,East,90,6.3,9.4,7,0.00,,,0.00,WUHU216HW,2013-06-07 20:02:00,
2013-06-07 13:07:00,91.6,27.5,30.18,NNW,338,5.1,9.4,7,0.00,,,0.00,WUHU216HW,2013-06-07 20:07:00,
2013-06-07 13:12:00,91.6,27.5,30.18,NW,315,8.1,8.1,8,0.00,,,0.00,WUHU216HW,2013-06-07 20:12:00,
2013-06-07 13:17:00,91.6,27.5,30.18,East,90,3.8,8.7,7,0.00,,,0.00,WUHU216HW,2013-06-07 20:17:00,
2013-06-07 13:22:00,90.9,26.9,30.18,NW,315,6.3,8.7,8,0.00,,,0.00,WUHU216HW,2013-06-07 20:22:00,
2013-06-07 13:28:00,90.5,26.6,30.18,ENE,68,3.4,10.5,7,0.00,,,0.00,WUHU216HW,2013-06-07 20:28:00,
2013-06-07 13:33:00,90.4,26.5,30.18,West,270,3.8,10.5,7,0.00,,,0.00,WUHU216HW,2013-06-07 20:33:00,
2013-06-07 13:38:00,90.0,26.2,30.18,NNE,23,4.3,8.7,7,0.00,,,0.00,WUHU216HW,2013-06-07 20:38:00,
2013-06-07 13:43:00,90.4,26.5,30.18,NNW,338,6.3,9.4,8,0.00,,,0.00,WUHU216HW,2013-06-07 20:43:00,
2013-06-07 13:48:00,91.1,27.1,30.17,NNE,23,6.3,9.4,8,0.00,,,0.00,WUHU216HW,2013-06-07 20:48:00,
2013-06-07 13:53:00,90.5,26.6,30.17,NE,45,4.0,9.8,8,0.00,,,0.00,WUHU216HW,2013-06-07 20:53:00,
2013-06-07 13:58:00,90.0,26.2,30.17,SW,225,6.7,12.5,8,0.00,,,0.00,WUHU216HW,2013-06-07 20:58:00,
2013-06-07 14:04:00,90.2,26.4,30.17,NNW,338,7.2,12.5,8,0.00,,,0.00,WUHU216HW,2013-06-07 21:04:00,
2013-06-07 14:09:00,90.7,26.8,30.17,NNW,338,3.4,8.5,8,0.00,,,0.00,WUHU216HW,2013-06-07 21:09:00,
2013-06-07 14:14:00,90.0,26.2,30.17,North,0,2.7,7.8,7,0.00,,,0.00,WUHU216HW,2013-06-07 21:14:00,
2013-06-07 14:19:00,89.8,26.1,30.16,NE,45,3.6,7.8,8,0.00,,,0.00,WUHU216HW,2013-06-07 21:19:00,
2013-06-07 14:24:00,90.2,26.4,30.16,NW,315,4.9,5.1,8,0.00,,,0.00,WUHU216HW,2013-06-07 21:24:00,
2013-06-07 14:29:00,90.9,26.9,30.16,NNW,338,9.8,9.8,7,0.00,,,0.00,WUHU216HW,2013-06-07 21:29:00,
2013-06-07 14:34:00,91.1,27.1,30.16,NE,45,4.9,9.8,7,0.00,,,0.00,WUHU216HW,2013-06-07 21:34:00,
2013-06-07 14:39:00,90.7,26.8,30.16,NNE,23,6.3,9.8,7,0.00,,,0.00,WUHU216HW,2013-06-07 21:39:00,
2013-06-07 14:44:00,91.1,27.1,30.16,WNW,293,7.4,7.6,8,0.00,,,0.00,WUHU216HW,2013-06-07 21:44:00,
2013-06-07 14:50:00,91.4,27.4,30.16,NNW,338,6.3,8.5,7,0.00,,,0.00,WUHU216HW,2013-06-07 21:50:00,
2013-06-07 14:55:00,91.8,27.6,30.16,NNW,338,2.5,8.5,7,0.00,,,0.00,WUHU216HW,2013-06-07 21:55:00,
2013-06-07 15:00:00,91.8,27.6,30.16,North,0,2.7,6.0,7,0.00,,,0.00,WUHU216HW,2013-06-07 22:00:00,
2013-06-07 15:05:00,92.2,27.9,30.15,North,0,6.3,6.9,8,0.00,,,0.00,WUHU216HW,2013-06-07 22:05:00,
2013-06-07 15:10:00,92.0,27.7,30.16,South,180,1.1,6.9,7,0.00,,,0.00,WUHU216HW,2013-06-07 22:10:00,
2013-06-07 15:15:00,92.0,27.7,30.15,NNW,338,2.9,6.3,7,0.00,,,0.00,WUHU216HW,2013-06-07 22:15:00,
2013-06-07 15:20:00,92.2,27.9,30.15,NW,315,3.1,7.4,7,0.00,,,0.00,WUHU216HW,2013-06-07 22:20:00,
2013-06-07 15:26:00,92.9,28.4,30.15,East,90,3.4,7.4,7,0.00,,,0.00,WUHU216HW,2013-06-07 22:26:00,
2013-06-07 15:31:00,92.5,28.1,30.15,NW,315,4.9,5.4,7,0.00,,,0.00,WUHU216HW,2013-06-07 22:31:00,
2013-06-07 15:36:00,92.0,27.7,30.14,North,0,3.6,6.3,7,0.00,,,0.00,WUHU216HW,2013-06-07 22:36:00,
2013-06-07 15:41:00,90.9,26.9,30.14,NE,45,5.1,6.3,7,0.00,,,0.00,WUHU216HW,2013-06-07 22:41:00,
2013-06-07 15:46:00,90.0,26.2,30.14,NNE,23,5.8,8.9,7,0.00,,,0.00,WUHU216HW,2013-06-07 22:46:00,
2013-06-07 15:51:00,89.3,25.7,30.14,SE,135,1.8,8.9,7,0.00,,,0.00,WUHU216HW,2013-06-07 22:51:00,
2013-06-07 15:56:00,89.8,26.1,30.14,ENE,68,4.0,6.5,7,0.00,,,0.00,WUHU216HW,2013-06-07 22:56:00,
2013-06-07 16:01:00,90.2,26.4,30.13,ESE,113,0.2,6.5,7,0.00,,,0.00,WUHU216HW,2013-06-07 23:01:00,
2013-06-07 16:06:00,90.5,26.6,30.13,East,90,6.5,6.5,7,0.00,,,0.00,WUHU216HW,2013-06-07 23:06:00,
2013-06-07 16:11:00,91.1,27.1,30.13,South,180,1.8,6.5,7,0.00,,,0.00,WUHU216HW,2013-06-07 23:11:00,
2013-06-07 16:16:00,91.3,27.2,30.13,WSW,248,2.2,6.5,7,0.00,,,0.00,WUHU216HW,2013-06-07 23:16:00,
2013-06-07 16:22:00,91.8,27.6,30.13,SSE,158,1.8,8.5,7,0.00,,,0.00,WUHU216HW,2013-06-07 23:22:00,
2013-06-07 16:27:00,92.5,28.1,30.13,SW,225,7.8,8.5,7,0.00,,,0.00,WUHU216HW,2013-06-07 23:27:00,
2013-06-07 16:33:00,92.9,28.4,30.13,SW,225,4.7,7.8,7,0.00,,,0.00,WUHU216HW,2013-06-07 23:33:00,
2013-06-07 16:38:00,92.9,28.4,30.13,West,270,2.9,7.4,7,0.00,,,0.00,WUHU216HW,2013-06-07 23:38:00,
2013-06-07 16:43:00,92.9,28.4,30.13,NW,315,5.4,8.7,7,0.00,,,0.00,WUHU216HW,2013-06-07 23:43:00,
2013-06-07 16:48:00,92.9,28.4,30.13,WNW,293,7.2,8.7,6,0.00,,,0.00,WUHU216HW,2013-06-07 23:48:00,
2013-06-07 16:53:00,92.3,28.0,30.13,WNW,293,11.0,11.0,6,0.00,,,0.00,WUHU216HW,2013-06-07 23:53:00,
2013-06-07 16:59:00,91.8,27.6,30.13,SW,225,5.1,11.2,7,0.00,,,0.00,WUHU216HW,2013-06-07 23:59:00,
2013-06-07 17:05:00,91.6,27.5,30.12,WSW,248,10.7,11.4,7,0.00,,,0.00,WUHU216HW,2013-06-08 00:05:00,
2013-06-07 17:10:00,91.1,27.1,30.13,NW,315,8.1,11.4,7,0.00,,,0.00,WUHU216HW,2013-06-08 00:10:00,
2013-06-07 17:15:00,90.9,26.9,30.12,West,270,2.2,10.1,7,0.00,,,0.00,WUHU216HW,2013-06-08 00:15:00,
2013-06-07 17:20:00,90.9,26.9,30.12,WSW,248,3.4,8.7,7,0.00,,,0.00,WUHU216HW,2013-06-08 00:20:00,
2013-06-07 17:25:00,90.7,26.8,30.12,West,270,6.9,8.7,7,0.00,,,0.00,WUHU216HW,2013-06-08 00:25:00,
2013-06-07 17:30:00,90.5,26.6,30.13,WSW,248,4.7,6.9,7,0.00,,,0.00,WUHU216HW,2013-06-08 00:30:00,
2013-06-07 17:35:00,90.5,26.6,30.13,West,270,7.8,9.8,6,0.00,,,0.00,WUHU216HW,2013-06-08 00:35:00,
2013-06-07 17:40:00,90.4,26.5,30.12,West,270,7.6,9.8,7,0.00,,,0.00,WUHU216HW,2013-06-08 00:40:00,
2013-06-07 17:45:00,90.0,26.2,30.12,WSW,248,10.5,11.6,6,0.00,,,0.00,WUHU216HW,2013-06-08 00:45:00,
2013-06-07 17:50:00,89.6,25.9,30.12,NW,315,4.5,11.6,7,0.00,,,0.00,WUHU216HW,2013-06-08 00:50:00,
2013-06-07 17:56:00,89.3,25.7,30.12,WSW,248,8.5,9.6,6,0.00,,,0.00,WUHU216HW,2013-06-08 00:56:00,
2013-06-07 18:01:00,88.7,25.3,30.12,NW,315,5.4,9.6,6,0.00,,,0.00,WUHU216HW,2013-06-08 01:01:00,
2013-06-07 18:06:00,88.2,24.9,30.13,West,270,3.8,13.4,7,0.00,,,0.00,WUHU216HW,2013-06-08 01:06:00,
2013-06-07 18:11:00,87.8,24.7,30.13,WNW,293,10.3,13.4,6,0.00,,,0.00,WUHU216HW,2013-06-08 01:11:00,
2013-06-07 18:16:00,87.1,24.1,30.13,WNW,293,6.3,12.1,6,0.00,,,0.00,WUHU216HW,2013-06-08 01:16:00,
2013-06-07 18:21:00,86.9,23.9,30.13,WNW,293,6.9,11.9,7,0.00,,,0.00,WUHU216HW,2013-06-08 01:21:00,
2013-06-07 18:26:00,86.6,23.7,30.13,West,270,6.5,11.9,6,0.00,,,0.00,WUHU216HW,2013-06-08 01:26:00,
2013-06-07 18:31:00,86.0,23.2,30.13,NNW,338,6.7,12.1,6,0.00,,,0.00,WUHU216HW,2013-06-08 01:31:00,
2013-06-07 18:36:00,85.5,22.8,30.13,NNW,338,6.3,14.3,7,0.00,,,0.00,WUHU216HW,2013-06-08 01:36:00,
2013-06-07 18:42:00,85.1,22.5,30.13,NW,315,4.3,14.3,7,0.00,,,0.00,WUHU216HW,2013-06-08 01:42:00,
2013-06-07 18:47:00,84.8,22.2,30.13,NW,315,8.5,8.5,7,0.00,,,0.00,WUHU216HW,2013-06-08 01:47:00,
2013-06-07 18:52:00,84.4,22.0,30.13,West,270,3.1,8.5,7,0.00,,,0.00,WUHU216HW,2013-06-08 01:52:00,
2013-06-07 18:57:00,84.1,21.7,30.13,WNW,293,7.6,7.6,7,0.00,,,0.00,WUHU216HW,2013-06-08 01:57:00,
2013-06-07 19:03:00,83.5,21.2,30.14,WSW,248,4.9,12.3,7,0.00,,,0.00,WUHU216HW,2013-06-08 02:03:00,
2013-06-07 19:08:00,83.3,21.2,30.13,NNW,338,4.0,12.3,8,0.00,,,0.00,WUHU216HW,2013-06-08 02:08:00,
2013-06-07 19:13:00,83.0,20.9,30.14,NW,315,6.9,8.5,8,0.00,,,0.00,WUHU216HW,2013-06-08 02:13:00,
2013-06-07 19:18:00,82.6,20.6,30.14,WNW,293,5.4,8.3,8,0.00,,,0.00,WUHU216HW,2013-06-08 02:18:00,
2013-06-07 19:23:00,82.3,20.3,30.14,NNW,338,5.8,8.3,8,0.00,,,0.00,WUHU216HW,2013-06-08 02:23:00,
2013-06-07 19:28:00,81.7,20.0,30.14,WNW,293,3.4,6.3,8,0.00,,,0.00,WUHU216HW,2013-06-08 02:28:00,
2013-06-07 19:33:00,81.4,19.6,30.14,WNW,293,1.1,6.3,8,0.00,,,0.00,WUHU216HW,2013-06-08 02:33:00,
2013-06-07 19:39:00,81.0,19.4,30.14,WSW,248,1.1,4.7,8,0.00,,,0.00,WUHU216HW,2013-06-08 02:39:00,
2013-06-07 19:44:00,80.6,19.1,30.14,SW,225,0.4,3.6,10,0.00,,,0.00,WUHU216HW,2013-06-08 02:44:00,
2013-06-07 19:49:00,79.9,18.6,30.14,SSW,203,0.4,2.5,10,0.00,,,0.00,WUHU216HW,2013-06-08 02:49:00,
2013-06-07 19:54:00,79.2,17.9,30.14,SW,225,0.0,3.1,10,0.00,,,0.00,WUHU216HW,2013-06-08 02:54:00,
2013-06-07 19:59:00,78.7,17.6,30.14,SSE,158,1.1,3.1,10,0.00,,,0.00,WUHU216HW,2013-06-08 02:59:00,
2013-06-07 20:04:00,77.9,17.0,30.14,South,180,1.8,3.1,10,0.00,,,0.00,WUHU216HW,2013-06-08 03:04:00,
2013-06-07 20:09:00,77.0,18.0,30.14,SSE,158,1.8,3.1,11,0.00,,,0.00,WUHU216HW,2013-06-08 03:09:00,
2013-06-07 20:14:00,76.1,17.3,30.14,SE,135,2.5,3.1,11,0.00,,,0.00,WUHU216HW,2013-06-08 03:14:00,
2013-06-07 20:19:00,75.4,16.7,30.14,South,180,2.9,2.9,11,0.00,,,0.00,WUHU216HW,2013-06-08 03:19:00,
2013-06-07 20:24:00,74.5,16.1,30.14,SE,135,1.1,2.9,11,0.00,,,0.00,WUHU216HW,2013-06-08 03:24:00,
2013-06-07 20:29:00,73.8,17.2,30.14,SE,135,1.8,2.5,12,0.00,,,0.00,WUHU216HW,2013-06-08 03:29:00,
2013-06-07 20:35:00,72.7,16.4,30.14,SSE,158,2.5,2.5,12,0.00,,,0.00,WUHU216HW,2013-06-08 03:35:00,
2013-06-07 20:40:00,71.6,15.5,30.15,South,180,2.0,3.6,12,0.00,,,0.00,WUHU216HW,2013-06-08 03:40:00,
2013-06-07 20:45:00,70.9,16.6,30.15,SE,135,0.4,3.6,13,0.00,,,0.00,WUHU216HW,2013-06-08 03:45:00,
2013-06-07 20:50:00,70.2,15.9,30.15,South,180,1.8,1.8,13,0.00,,,0.00,WUHU216HW,2013-06-08 03:50:00,
2013-06-07 20:56:00,69.5,15.4,30.15,ESE,113,2.2,3.4,13,0.00,,,0.00,WUHU216HW,2013-06-08 03:56:00,
2013-06-07 21:01:00,68.8,14.9,30.15,South,180,0.4,3.4,13,0.00,,,0.00,WUHU216HW,2013-06-08 04:01:00,
2013-06-07 21:07:00,68.0,17.6,30.15,ESE,113,1.6,3.4,15,0.00,,,0.00,WUHU216HW,2013-06-08 04:07:00,
2013-06-07 21:12:00,67.5,17.1,30.16,SE,135,1.8,3.1,15,0.00,,,0.00,WUHU216HW,2013-06-08 04:12:00,
2013-06-07 21:17:00,67.0,16.7,30.16,SSE,158,1.8,1.8,15,0.00,,,0.00,WUHU216HW,2013-06-08 04:17:00,
2013-06-07 21:22:00,66.6,16.3,30.16,ESE,113,0.0,1.8,15,0.00,,,0.00,WUHU216HW,2013-06-08 04:22:00,
2013-06-07 21:27:00,66.1,17.5,30.16,South,180,1.3,1.8,16,0.00,,,0.00,WUHU216HW,2013-06-08 04:27:00,
2013-06-07 21:32:00,65.5,17.0,30.16,South,180,2.5,2.5,16,0.00,,,0.00,WUHU216HW,2013-06-08 04:32:00,
2013-06-07 21:37:00,65.2,16.7,30.16,South,180,1.8,2.7,16,0.00,,,0.00,WUHU216HW,2013-06-08 04:37:00,
2013-06-07 21:42:00,64.6,16.3,30.16,ESE,113,0.7,3.1,16,0.00,,,0.00,WUHU216HW,2013-06-08 04:42:00,
2013-06-07 21:47:00,63.9,15.8,30.16,SE,135,0.9,3.1,16,0.00,,,0.00,WUHU216HW,2013-06-08 04:47:00,
2013-06-07 21:52:00,63.4,15.3,30.16,SSE,158,0.0,1.1,16,0.00,,,0.00,WUHU216HW,2013-06-08 04:52:00,
2013-06-07 21:57:00,62.3,16.1,30.16,East,90,0.9,1.1,17,0.00,,,0.00,WUHU216HW,2013-06-08 04:57:00,
2013-06-07 22:02:00,61.7,15.7,30.16,South,180,1.6,1.6,17,0.00,,,0.00,WUHU216HW,2013-06-08 05:02:00,
2013-06-07 22:07:00,61.6,17.1,30.16,SSE,158,2.5,2.5,18,0.00,,,0.00,WUHU216HW,2013-06-08 05:07:00,
2013-06-07 22:12:00,61.2,16.7,30.16,SSE,158,0.4,2.5,18,0.00,,,0.00,WUHU216HW,2013-06-08 05:12:00,
2013-06-07 22:17:00,60.8,16.5,30.16,SSE,158,0.0,2.5,18,0.00,,,0.00,WUHU216HW,2013-06-08 05:17:00,
2013-06-07 22:22:00,60.1,15.8,30.16,SSE,158,1.1,2.7,18,0.00,,,0.00,WUHU216HW,2013-06-08 05:22:00,
2013-06-07 22:27:00,59.8,15.6,30.16,SE,135,0.0,2.7,18,0.00,,,0.00,WUHU216HW,2013-06-08 05:27:00,
2013-06-07 22:32:00,59.2,16.7,30.16,SE,135,1.1,2.7,19,0.00,,,0.00,WUHU216HW,2013-06-08 05:32:00,
2013-06-07 22:37:00,58.7,14.6,30.16,South,180,0.0,2.0,18,0.00,,,0.00,WUHU216HW,2013-06-08 05:37:00,
2013-06-07 22:42:00,58.5,14.5,30.16,South,180,1.3,1.3,18,0.00,,,0.00,WUHU216HW,2013-06-08 05:42:00,
2013-06-07 22:47:00,58.3,14.3,30.16,SSE,158,1.1,2.0,18,0.00,,,0.00,WUHU216HW,2013-06-08 05:47:00,
2013-06-07 22:52:00,58.0,15.6,30.16,SSW,203,0.4,2.2,19,0.00,,,0.00,WUHU216HW,2013-06-08 05:52:00,
2013-06-07 22:57:00,57.6,16.8,30.16,South,180,1.1,2.2,20,0.00,,,0.00,WUHU216HW,2013-06-08 05:57:00,
2013-06-07 23:02:00,57.4,16.8,30.16,South,180,1.8,2.0,20,0.00,,,0.00,WUHU216HW,2013-06-08 06:02:00,
2013-06-07 23:07:00,57.2,16.6,30.16,SE,135,0.7,2.0,20,0.00,,,0.00,WUHU216HW,2013-06-08 06:07:00,
2013-06-07 23:12:00,56.9,16.3,30.16,SSE,158,0.0,1.8,20,0.00,,,0.00,WUHU216HW,2013-06-08 06:12:00,
2013-06-07 23:17:00,56.5,16.0,30.16,South,180,0.7,1.6,20,0.00,,,0.00,WUHU216HW,2013-06-08 06:17:00,
2013-06-07 23:22:00,55.8,16.4,30.16,South,180,0.0,2.0,21,0.00,,,0.00,WUHU216HW,2013-06-08 06:22:00,
2013-06-07 23:27:00,55.4,16.0,30.16,South,180,1.3,2.5,21,0.00,,,0.00,WUHU216HW,2013-06-08 06:27:00,
2013-06-07 23:32:00,55.1,15.8,30.16,SSE,158,1.1,2.5,21,0.00,,,0.00,WUHU216HW,2013-06-08 06:32:00,
2013-06-07 23:37:00,54.9,16.6,30.16,SSE,158,0.7,2.5,22,0.00,,,0.00,WUHU216HW,2013-06-08 06:37:00,
2013-06-07 23:42:00,54.4,16.0,30.15,SSW,203,1.1,2.5,22,0.00,,,0.00,WUHU216HW,2013-06-08 06:42:00,
2013-06-07 23:47:00,54.2,15.8,30.16,ENE,68,0.4,1.8,22,0.00,,,0.00,WUHU216HW,2013-06-08 06:47:00,
2013-06-07 23:52:00,53.8,16.6,30.16,South,180,0.9,2.7,23,0.00,,,0.00,WUHU216HW,2013-06-08 06:52:00,
2013-06-07 23:57:00,53.6,16.4,30.16,South,180,2.7,2.7,23,0.00,,,0.00,WUHU216HW,2013-06-08 06:57:00,